Time;durP1;ratioP1;P1;durP2;ratioP2;P2;SDS_P1;SDS_P2;PMS_P1;PMS_P2;Temp;Humidity;BMP_temperature;BMP_pressure;BME280_temperature;BME280_humidity;BME280_pressure;Samples;Min_cycle;Max_cycle;Signal;HPM_P1;HPM_P2
2022/04/11 00:00:31;;;;;;;19.55;10.68;;;;;;;6.69;60.59;101702.63;3580445;39;20303;-62
2022/04/11 00:02:57;;;;;;;15.70;10.93;;;;;;;6.59;60.20;101682.44;3584341;39;20063;-63
2022/04/11 00:05:23;;;;;;;15.55;10.43;;;;;;;6.64;60.37;101696.56;3582435;40;20039;-62
2022/04/11 00:07:49;;;;;;;13.82;10.65;;;;;;;6.61;60.97;101688.63;3575316;39;20929;-63
2022/04/11 00:10:15;;;;;;;22.40;11.25;;;;;;;6.63;61.10;101686.78;3581558;40;20044;-63
2022/04/11 00:12:41;;;;;;;21.73;11.32;;;;;;;6.67;61.16;101684.91;3582746;40;20047;-63
2022/04/11 00:15:09;;;;;;;24.10;11.40;;;;;;;6.67;61.65;101684.91;3574536;40;20055;-63
2022/04/11 00:17:37;;;;;;;19.60;10.77;;;;;;;6.69;61.77;101683.03;3580598;40;20056;-62
2022/04/11 00:20:05;;;;;;;26.80;11.98;;;;;;;6.69;61.70;101675.91;3583040;39;20297;-63
2022/04/11 00:22:34;;;;;;;29.75;12.35;;;;;;;6.72;61.45;101683.84;3579230;40;20052;-61
2022/04/11 00:25:00;;;;;;;22.63;11.43;;;;;;;6.78;60.92;101681.88;3576407;39;20082;-63
2022/04/11 00:27:25;;;;;;;26.15;11.90;;;;;;;6.80;61.87;101680.03;3586139;40;20083;-63
2022/04/11 00:29:51;;;;;;;23.65;11.52;;;;;;;6.80;61.33;101669.34;3574237;39;20535;-63
2022/04/11 00:32:16;;;;;;;32.40;12.38;;;;;;;6.73;61.92;101658.84;3583668;40;20055;-62
2022/04/11 00:34:42;;;;;;;26.25;12.32;;;;;;;6.80;61.88;101669.34;3579224;40;20044;-62
2022/04/11 00:37:08;;;;;;;30.30;12.10;;;;;;;6.80;61.95;101669.34;3580490;40;20060;-62
2022/04/11 00:39:33;;;;;;;26.15;11.85;;;;;;;6.79;61.87;101664.91;3574519;40;20055;-61
2022/04/11 00:42:08;;;;;;;27.58;12.48;;;;;;;6.77;61.57;101664.09;3583823;39;20056;-62
2022/04/11 00:44:34;;;;;;;26.52;12.50;;;;;;;6.77;61.96;101659.63;3582556;39;20307;-62
2022/04/11 00:47:00;;;;;;;28.17;11.70;;;;;;;6.74;61.80;101655.25;3571309;40;20048;-63
2022/04/11 00:49:25;;;;;;;28.63;12.38;;;;;;;6.75;61.70;101650.78;3581459;40;20079;-62
2022/04/11 00:51:51;;;;;;;32.38;11.40;;;;;;;6.73;62.76;101641.97;3578630;40;20056;-63
2022/04/11 00:54:17;;;;;;;30.00;12.35;;;;;;;6.74;62.45;101641.88;3582976;39;20056;-63
2022/04/11 00:56:44;;;;;;;30.52;12.13;;;;;;;6.34;62.10;101578.19;3576215;39;20111;-62
2022/04/11 00:59:13;;;;;;;31.10;12.68;;;;;;;6.74;62.41;101643.69;3581103;40;20079;-62
2022/04/11 01:01:39;;;;;;;28.20;12.25;;;;;;;6.74;62.66;101639.22;3573649;39;20364;-63
2022/04/11 01:04:05;;;;;;;30.00;12.70;;;;;;;6.72;62.79;101630.41;3584135;40;20317;-61
2022/04/11 01:06:30;;;;;;;33.60;13.07;;;;;;;6.72;62.36;101635.75;3582029;40;20056;-64
2022/04/11 01:08:57;;;;;;;27.20;12.43;;;;;;;6.72;62.25;101634.84;3581998;40;20605;-62
2022/04/11 01:11:23;;;;;;;25.20;12.00;;;;;;;6.73;62.15;101632.13;3576251;39;20062;-61
2022/04/11 01:13:49;;;;;;;26.45;12.00;;;;;;;6.73;61.59;101626.78;3574229;40;20052;-62
2022/04/11 01:16:27;;;;;;;25.98;12.20;;;;;;;6.66;61.66;101619.91;3587080;40;20542;-62
2022/04/11 01:18:53;;;;;;;27.70;12.25;;;;;;;6.73;61.20;101629.47;3574902;39;20063;-62
2022/04/11 01:21:18;;;;;;;23.52;11.75;;;;;;;6.72;61.14;101627.72;3584134;40;20048;-62
2022/04/11 01:23:44;;;;;;;23.55;11.27;;;;;;;6.72;61.25;101624.16;3581049;40;20146;-62
2022/04/11 01:26:10;;;;;;;24.00;11.77;;;;;;;6.72;61.56;101629.50;3580775;40;20417;-63
2022/04/11 01:28:40;;;;;;;24.65;11.52;;;;;;;6.73;61.85;101626.78;3570327;39;20060;-62
2022/04/11 01:31:05;;;;;;;19.88;11.50;;;;;;;6.74;61.03;101628.53;3583983;40;20048;-62
2022/04/11 01:33:31;;;;;;;22.35;11.20;;;;;;;6.76;61.13;101635.66;3570089;40;20476;-62
2022/04/11 01:35:57;;;;;;;24.95;11.05;;;;;;;6.79;61.27;101631.06;3581101;40;20082;-63
2022/04/11 01:38:23;;;;;;;22.15;11.73;;;;;;;6.79;61.73;101630.16;3584129;40;20060;-62
2022/04/11 01:40:57;;;;;;;24.52;11.45;;;;;;;6.76;60.59;101624.94;3581026;40;20129;-62
2022/04/11 01:43:24;;;;;;;21.00;11.23;;;;;;;6.76;60.82;101630.31;3573885;40;20040;-62
2022/04/11 01:45:51;;;;;;;20.58;11.23;;;;;;;6.58;61.25;101594.38;3579284;40;20064;-63
2022/04/11 01:48:17;;;;;;;16.08;10.82;;;;;;;6.72;61.09;101625.06;3572394;40;20100;-63
2022/04/11 01:50:43;;;;;;;22.67;11.70;;;;;;;6.71;61.23;101633.09;3577306;40;20488;-62
2022/04/11 01:53:18;;;;;;;17.02;11.18;;;;;;;6.70;61.78;101632.22;3584528;39;20056;-62
2022/04/11 01:55:45;;;;;;;18.48;10.95;;;;;;;6.67;62.11;101632.34;3581965;40;20051;-63
2022/04/11 01:58:11;;;;;;;17.27;11.05;;;;;;;6.66;61.56;101630.59;3577559;40;20119;-63
2022/04/11 02:00:39;;;;;;;17.98;11.15;;;;;;;6.64;61.89;101621.75;3577111;40;20371;-62
2022/04/11 02:03:07;;;;;;;17.02;11.05;;;;;;;6.62;61.46;101630.72;3585296;40;20128;-63
2022/04/11 02:05:34;;;;;;;17.38;10.95;;;;;;;6.38;61.94;101592.34;3571808;39;20068;-62
2022/04/11 02:08:00;;;;;;;18.20;10.73;;;;;;;6.48;62.34;101612.50;3579796;40;20052;-63
2022/04/11 02:10:27;;;;;;;17.42;11.00;;;;;;;6.21;62.88;101575.03;3582255;40;20062;-63
2022/04/11 02:12:54;;;;;;;15.02;10.65;;;;;;;6.44;62.63;101624.19;3576899;39;20059;-63
2022/04/11 02:15:20;;;;;;;23.08;12.60;;;;;;;6.38;62.67;101611.03;3582784;39;20070;-63
2022/04/11 02:17:50;;;;;;;19.88;12.00;;;;;;;6.33;63.68;101615.66;3578144;39;20068;-62
2022/04/11 02:20:16;;;;;;;17.10;13.00;;;;;;;6.28;63.32;101613.13;3573432;40;20044;-62
2022/04/11 02:22:56;;;;;;;17.58;11.57;;;;;;;6.19;63.83;101611.63;3580821;39;20039;-63
2022/04/11 02:25:29;;;;;;;19.73;11.85;;;;;;;5.71;64.31;101545.44;3580725;40;20055;-62
2022/04/11 02:27:55;;;;;;;18.35;12.32;;;;;;;6.08;64.19;101618.19;3577173;40;20063;-62
2022/04/11 02:30:24;;;;;;;18.27;12.13;;;;;;;6.01;64.49;101617.50;3583009;40;20044;-62
2022/04/11 02:32:52;;;;;;;16.63;11.60;;;;;;;5.96;64.35;101623.00;3581901;39;20055;-62
2022/04/11 02:35:18;;;;;;;16.05;12.07;;;;;;;5.91;64.15;101618.69;3586864;40;20464;-63
2022/04/11 02:37:44;;;;;;;18.00;12.65;;;;;;;5.85;64.44;101618.84;3572420;39;21136;-63
2022/04/11 02:40:14;;;;;;;17.52;11.90;;;;;;;5.70;64.12;101610.38;3586424;39;20044;-62
2022/04/11 02:42:43;;;;;;;16.02;12.02;;;;;;;5.74;64.35;101617.38;3585433;39;20392;-63
2022/04/11 02:45:11;;;;;;;16.98;12.05;;;;;;;5.70;64.73;101615.69;3577309;40;20052;-62
2022/04/11 02:47:37;;;;;;;15.50;11.40;;;;;;;5.39;64.22;101566.84;3582202;40;20302;-62
2022/04/11 02:50:03;;;;;;;17.90;11.57;;;;;;;5.63;64.48;101611.47;3587709;40;20343;-62
2022/04/11 02:52:29;;;;;;;15.60;12.20;;;;;;;5.59;64.49;101616.03;3574757;40;20371;-62
2022/04/11 02:54:56;;;;;;;17.88;12.25;;;;;;;5.55;64.58;101621.47;3580291;40;20060;-62
2022/04/11 02:57:23;;;;;;;19.65;11.95;;;;;;;5.50;63.96;101618.94;3582578;40;20058;-63
2022/04/11 02:59:49;;;;;;;17.45;12.70;;;;;;;5.45;64.88;101609.31;3575922;40;20048;-63
2022/04/11 03:02:15;;;;;;;15.43;11.85;;;;;;;5.41;64.75;101607.66;3584933;39;20048;-62
2022/04/11 03:04:40;;;;;;;17.15;12.48;;;;;;;5.37;65.02;101606.00;3576297;39;20090;-62
2022/04/11 03:07:06;;;;;;;18.55;12.77;;;;;;;5.35;64.95;101608.69;3585423;40;20136;-63
2022/04/11 03:09:32;;;;;;;16.35;11.70;;;;;;;4.87;64.82;101531.84;3569814;40;20287;-62
2022/04/11 03:11:58;;;;;;;14.32;12.38;;;;;;;5.26;65.23;101599.16;3583872;40;20066;-63
2022/04/11 03:14:23;;;;;;;18.52;12.68;;;;;;;5.24;65.20;101605.47;3580224;40;20056;-62
2022/04/11 03:16:50;;;;;;;17.17;12.43;;;;;;;5.19;66.11;101608.25;3577731;39;20171;-63
2022/04/11 03:19:16;;;;;;;18.67;12.50;;;;;;;5.16;65.91;101603.00;3578340;40;20052;-63
2022/04/11 03:21:41;;;;;;;18.00;12.52;;;;;;;5.12;66.07;101602.22;3581739;39;20140;-63
2022/04/11 03:24:07;;;;;;;14.75;12.57;;;;;;;5.10;66.38;101608.50;3571077;40;20048;-63
2022/04/11 03:26:33;;;;;;;16.92;12.70;;;;;;;5.06;67.01;101604.16;3580887;39;20087;-63
2022/04/11 03:28:58;;;;;;;16.25;12.00;;;;;;;5.03;67.07;101606.91;3578179;40;20055;-62
2022/04/11 03:31:24;;;;;;;15.38;12.65;;;;;;;4.99;66.80;101602.59;3576883;40;20052;-63
2022/04/11 03:33:49;;;;;;;17.23;12.80;;;;;;;4.95;66.96;101609.78;3575854;40;20044;-63
2022/04/11 03:36:15;;;;;;;14.60;12.27;;;;;;;4.92;67.07;101598.34;3582901;40;20399;-63
2022/04/11 03:38:40;;;;;;;29.13;18.55;;;;;;;4.85;67.00;101603.81;3572884;40;20856;-62
2022/04/11 03:41:06;;;;;;;21.90;15.70;;;;;;;4.81;67.29;101607.47;3580214;40;20067;-63
2022/04/11 03:43:31;;;;;;;17.08;13.38;;;;;;;4.79;67.33;101609.31;3582935;40;20051;-62
2022/04/11 03:45:57;;;;;;;16.80;13.32;;;;;;;4.75;67.23;101602.28;3573532;40;20052;-63
2022/04/11 03:48:22;;;;;;;16.55;12.70;;;;;;;4.74;67.68;101608.53;3582768;40;20059;-63
2022/04/11 03:50:48;;;;;;;14.35;12.73;;;;;;;4.73;67.68;101603.25;3575463;40;20055;-63
2022/04/11 03:53:16;;;;;;;14.50;12.77;;;;;;;4.72;68.08;101613.00;3581110;40;20097;-62
2022/04/11 03:55:42;;;;;;;20.10;13.98;;;;;;;4.67;67.82;101603.41;3570906;39;20077;-62
2022/04/11 03:58:07;;;;;;;17.38;12.70;;;;;;;4.67;67.88;101609.59;3583235;40;20291;-63
2022/04/11 04:00:33;;;;;;;15.45;13.07;;;;;;;4.70;68.84;101604.22;3576317;40;20036;-62
2022/04/11 04:03:11;;;;;;;18.48;13.43;;;;;;;4.55;68.44;101583.28;3581027;40;20060;-63
2022/04/11 04:05:46;;;;;;;16.42;13.57;;;;;;;4.63;68.62;101607.91;3576843;40;20039;-62
2022/04/11 04:08:14;;;;;;;15.35;13.43;;;;;;;4.59;68.24;101600.91;3580354;40;20055;-62
2022/04/11 04:10:44;;;;;;;17.42;13.75;;;;;;;4.55;68.59;101607.25;3572855;40;20117;-62
2022/04/11 04:13:09;;;;;;;17.88;13.50;;;;;;;4.51;68.55;101602.91;3581584;40;20052;-62
2022/04/11 04:15:36;;;;;;;17.40;13.88;;;;;;;4.48;68.76;101600.31;3579600;40;20060;-62
2022/04/11 04:18:02;;;;;;;15.48;13.52;;;;;;;4.43;68.42;101598.63;3582077;39;20089;-62
2022/04/11 04:20:27;;;;;;;17.38;13.82;;;;;;;4.40;68.18;101595.16;3573622;39;20055;-62
2022/04/11 04:22:54;;;;;;;16.88;13.50;;;;;;;4.37;68.37;101595.25;3581183;40;20259;-62
2022/04/11 04:25:20;;;;;;;20.90;14.30;;;;;;;4.33;68.35;101593.56;3577569;40;20137;-62
2022/04/11 04:27:45;;;;;;;17.88;14.13;;;;;;;4.25;68.69;101580.47;3571791;39;20075;-63
2022/04/11 04:30:12;;;;;;;16.50;14.05;;;;;;;4.34;68.81;101593.50;3583189;40;20071;-63
2022/04/11 04:32:38;;;;;;;15.98;13.80;;;;;;;4.36;69.10;101598.81;3575369;39;20036;-62
2022/04/11 04:35:06;;;;;;;18.52;14.75;;;;;;;4.35;69.24;101592.63;3580144;40;20048;-62
2022/04/11 04:37:32;;;;;;;16.27;14.13;;;;;;;4.23;68.69;101566.31;3580771;40;20402;-62
2022/04/11 04:39:58;;;;;;;20.35;13.88;;;;;;;4.39;68.85;101590.75;3578348;40;20231;-62
2022/04/11 04:42:26;;;;;;;14.43;12.63;;;;;;;4.37;69.33;101585.47;3575304;40;20357;-62
2022/04/11 04:44:53;;;;;;;17.55;13.00;;;;;;;4.22;68.81;101561.00;3580120;40;20202;-62
2022/04/11 04:47:18;;;;;;;16.83;14.15;;;;;;;4.35;69.01;101581.97;3571273;40;20298;-62
2022/04/11 04:49:47;;;;;;;20.50;14.55;;;;;;;4.34;69.98;101587.31;3577393;39;20112;-62
2022/04/11 04:52:13;;;;;;;22.15;13.60;;;;;;;4.34;69.50;101585.53;3582011;40;20382;-63
2022/04/11 04:54:39;;;;;;;17.83;14.10;;;;;;;4.33;69.18;101582.94;3584032;39;20069;-62
2022/04/11 04:57:06;;;;;;;16.77;14.00;;;;;;;4.31;69.22;101580.28;3585113;40;20406;-63
2022/04/11 04:59:32;;;;;;;20.15;14.38;;;;;;;4.34;69.17;101579.34;3572895;40;20052;-62
2022/04/11 05:01:57;;;;;;;16.33;14.55;;;;;;;4.35;69.86;101587.31;3580758;40;20055;-63
2022/04/11 05:04:23;;;;;;;17.77;14.00;;;;;;;4.36;69.09;101589.03;3576987;40;20044;-61
2022/04/11 05:06:49;;;;;;;19.38;13.52;;;;;;;4.39;69.80;101575.66;3577186;40;20128;-63
2022/04/11 05:09:16;;;;;;;17.60;13.32;;;;;;;4.40;68.95;101573.88;3579494;40;20414;-64
2022/04/11 05:11:41;;;;;;;15.73;13.95;;;;;;;4.39;68.48;101573.00;3580140;40;20666;-64
2022/04/11 05:14:07;;;;;;;16.95;13.88;;;;;;;4.41;69.21;101581.84;3573563;40;20095;-63
2022/04/11 05:16:33;;;;;;;17.27;14.52;;;;;;;4.42;69.74;101567.59;3579965;40;20134;-63
2022/04/11 05:18:59;;;;;;;21.27;14.02;;;;;;;4.41;68.83;101571.19;3573984;40;20051;-64
2022/04/11 05:21:24;;;;;;;19.73;14.27;;;;;;;4.33;69.30;101562.50;3584465;40;20047;-63
2022/04/11 05:23:50;;;;;;;20.88;13.55;;;;;;;4.40;69.12;101566.75;3579728;39;20650;-63
2022/04/11 05:26:18;;;;;;;22.95;13.23;;;;;;;4.49;69.21;101567.47;3586351;40;20052;-63
2022/04/11 05:28:44;;;;;;;20.55;12.65;;;;;;;4.54;68.76;101571.75;3570565;40;20118;-64
2022/04/11 05:31:10;;;;;;;17.58;13.15;;;;;;;4.64;67.98;101569.75;3581440;40;20330;-63
2022/04/11 05:33:35;;;;;;;17.15;12.13;;;;;;;4.65;67.48;101542.19;3576483;39;20060;-63
2022/04/11 05:36:01;;;;;;;17.55;13.07;;;;;;;4.95;67.41;101561.84;3580974;40;20056;-64
2022/04/11 05:38:26;;;;;;;18.90;11.73;;;;;;;4.99;66.45;101544.84;3618394;22;20476;-62
2022/04/11 05:40:52;;;;;;;18.83;12.52;;;;;;;5.24;66.00;101571.69;3578843;39;20189;-61
2022/04/11 05:43:18;;;;;;;15.35;11.23;;;;;;;5.31;65.55;101562.59;3585029;40;20052;-62
2022/04/11 05:45:43;;;;;;;18.90;11.80;;;;;;;5.42;64.37;101572.06;3571136;39;20062;-62
2022/04/11 05:48:10;;;;;;;14.05;10.98;;;;;;;5.51;63.90;101574.47;3585821;39;20306;-62
2022/04/11 05:50:36;;;;;;;16.58;11.80;;;;;;;5.64;62.75;101577.66;3577293;39;20036;-62
2022/04/11 05:53:03;;;;;;;15.02;10.50;;;;;;;5.51;62.29;101534.50;3583533;40;20099;-62
2022/04/11 05:55:29;;;;;;;20.55;10.52;;;;;;;5.85;61.86;101570.84;3576380;39;20075;-62
2022/04/11 05:57:55;;;;;;;14.90;9.85;;;;;;;5.96;61.79;101568.72;3581299;39;20063;-62
2022/04/11 06:00:21;;;;;;;15.02;10.60;;;;;;;6.09;60.85;101572.78;3575263;39;20051;-61
2022/04/11 06:02:48;;;;;;;16.45;10.75;;;;;;;6.21;60.69;101568.84;3579797;39;20063;-62
2022/04/11 06:05:14;;;;;;;18.15;10.60;;;;;;;6.27;60.61;101557.97;3584306;39;20062;-62
2022/04/11 06:07:40;;;;;;;20.65;10.27;;;;;;;6.41;59.87;101557.53;3575356;39;20201;-62
2022/04/11 06:10:07;;;;;;;15.95;10.18;;;;;;;6.58;58.57;101557.84;3583632;40;20060;-61
2022/04/11 06:12:34;;;;;;;16.83;10.00;;;;;;;6.65;58.93;101548.69;3581244;39;20564;-62
2022/04/11 06:15:00;;;;;;;15.85;9.68;;;;;;;6.82;58.06;101561.50;3585247;40;20062;-62
2022/04/11 06:17:26;;;;;;;16.88;9.52;;;;;;;6.94;57.58;101569.06;3573038;39;20145;-64
2022/04/11 06:19:54;;;;;;;13.27;9.52;;;;;;;7.09;57.26;101570.31;3582791;39;20064;-62
2022/04/11 06:22:21;;;;;;;14.13;9.38;;;;;;;7.22;56.74;101571.63;3576848;39;20074;-62
2022/04/11 06:24:51;;;;;;;14.10;9.50;;;;;;;7.35;56.32;101566.72;3576713;39;20581;-62
2022/04/11 06:27:18;;;;;;;16.02;8.75;;;;;;;7.47;56.95;101554.69;3583442;40;20272;-62
2022/04/11 06:29:44;;;;;;;12.32;8.65;;;;;;;7.62;55.63;101559.47;3580772;39;20047;-62
2022/04/11 06:32:10;;;;;;;12.32;8.68;;;;;;;7.82;55.77;101555.16;3573620;39;20431;-62
2022/04/11 06:34:37;;;;;;;16.38;8.68;;;;;;;8.02;54.59;101557.03;3580935;39;20680;-62
2022/04/11 06:37:04;;;;;;;14.27;8.25;;;;;;;8.24;54.54;101557.06;3576887;39;20046;-62
2022/04/11 06:39:30;;;;;;;13.90;8.48;;;;;;;8.47;53.14;101558.84;3581769;39;20043;-62
2022/04/11 06:41:57;;;;;;;13.07;7.78;;;;;;;8.68;52.40;101567.78;3582284;40;20502;-62
2022/04/11 06:44:24;;;;;;;13.57;8.18;;;;;;;8.92;52.24;101565.91;3582494;39;20580;-62
2022/04/11 06:46:50;;;;;;;10.07;7.53;;;;;;;9.19;51.98;101562.00;3571136;39;20079;-63
2022/04/11 06:49:15;;;;;;;11.20;7.60;;;;;;;9.46;51.30;101567.94;3582973;40;20143;-63
2022/04/11 06:51:41;;;;;;;11.55;7.57;;;;;;;9.73;50.17;101571.16;3581297;40;20063;-63
2022/04/11 06:54:07;;;;;;;10.15;6.72;;;;;;;10.00;49.89;101566.31;3575794;39;20040;-62
2022/04/11 06:56:32;;;;;;;11.80;7.43;;;;;;;10.23;48.74;101583.16;3580299;40;20053;-63
2022/04/11 06:58:58;;;;;;;10.88;7.40;;;;;;;10.42;47.86;101575.97;3584128;39;20337;-63
2022/04/11 07:01:24;;;;;;;12.30;6.53;;;;;;;10.60;46.89;101584.06;3581903;39;20269;-63
2022/04/11 07:03:51;;;;;;;11.43;7.15;;;;;;;10.77;45.96;101580.53;3572871;39;20140;-63
2022/04/11 07:06:17;;;;;;;11.65;6.65;;;;;;;10.95;45.24;101576.03;3583181;39;20051;-64
2022/04/11 07:08:43;;;;;;;9.95;6.38;;;;;;;11.16;45.10;101574.91;3573332;39;20063;-62
2022/04/11 07:11:08;;;;;;;10.90;6.60;;;;;;;11.38;46.30;101574.66;3583837;40;20128;-64
2022/04/11 07:13:35;;;;;;;11.38;6.30;;;;;;;11.55;44.76;101580.00;3580546;39;20159;-62
2022/04/11 07:16:02;;;;;;;11.30;6.40;;;;;;;11.68;45.17;101561.38;3582311;39;20152;-62
2022/04/11 07:18:28;;;;;;;11.90;6.15;;;;;;;11.89;44.53;101562.03;3571548;39;20044;-63
2022/04/11 07:20:54;;;;;;;9.57;6.05;;;;;;;12.08;44.90;101557.38;3581600;39;20063;-62
2022/04/11 07:23:20;;;;;;;12.10;5.90;;;;;;;11.69;43.92;101474.22;3580084;39;20056;-63
2022/04/11 07:25:45;;;;;;;9.98;5.78;;;;;;;12.36;42.59;101544.13;3575860;39;20612;-63
2022/04/11 07:28:11;;;;;;;11.48;5.95;;;;;;;12.48;41.92;101540.72;3583541;39;20137;-64
2022/04/11 07:30:37;;;;;;;10.70;5.60;;;;;;;12.71;42.02;101545.63;3581230;39;20063;-63
2022/04/11 07:33:03;;;;;;;9.05;4.78;;;;;;;12.87;40.98;101558.19;3569420;39;20056;-63
2022/04/11 07:35:28;;;;;;;6.20;4.85;;;;;;;13.02;41.33;101543.78;3581811;39;20101;-62
2022/04/11 07:37:57;;;;;;;12.65;5.18;;;;;;;13.12;41.13;101539.56;3578708;39;23346;-62
2022/04/11 07:40:24;;;;;;;8.60;5.13;;;;;;;13.26;40.25;101545.97;3576881;39;20054;-62
2022/04/11 07:42:51;;;;;;;7.22;4.60;;;;;;;13.36;40.57;101545.31;3584255;39;20063;-62
2022/04/11 07:45:18;;;;;;;6.70;4.20;;;;;;;13.51;39.32;101546.22;3582625;39;20046;-63
2022/04/11 07:47:44;;;;;;;11.50;4.63;;;;;;;13.72;40.17;101543.09;3583383;40;20055;-62
2022/04/11 07:50:10;;;;;;;7.82;4.60;;;;;;;13.93;39.30;101537.19;3583279;39;20125;-64
2022/04/11 07:52:40;;;;;;;10.63;4.45;;;;;;;14.10;37.82;101546.03;3580714;39;20745;-62
2022/04/11 07:55:08;;;;;;;9.50;4.28;;;;;;;14.22;37.97;101541.69;3573639;39;20084;-62
2022/04/11 07:57:34;;;;;;;5.25;3.75;;;;;;;14.36;38.14;101523.56;3582745;40;20067;-62
2022/04/11 08:00:00;;;;;;;8.82;4.50;;;;;;;14.60;37.57;101523.78;3586120;39;20132;-62
2022/04/11 08:02:27;;;;;;;8.52;4.50;;;;;;;14.77;35.95;101527.19;3583814;39;20056;-62
2022/04/11 08:04:54;;;;;;;7.63;4.43;;;;;;;14.85;35.65;101530.25;3574317;39;20090;-62
2022/04/11 08:07:20;;;;;;;7.35;4.22;;;;;;;14.84;36.54;101504.13;3586853;39;20047;-63
2022/04/11 08:09:48;;;;;;;8.45;4.00;;;;;;;14.86;35.70;101494.06;3572613;39;20070;-62
2022/04/11 08:12:17;;;;;;;7.63;4.60;;;;;;;15.03;35.91;101517.25;3585311;39;20056;-62
2022/04/11 08:14:43;;;;;;;8.07;3.90;;;;;;;15.14;35.52;101503.00;3583528;39;20062;-62
2022/04/11 08:17:08;;;;;;;7.38;4.25;;;;;;;15.22;35.48;101511.41;3586940;39;20055;-62
2022/04/11 08:19:34;;;;;;;8.23;4.43;;;;;;;15.14;35.63;101506.56;3572066;39;20157;-62
2022/04/11 08:22:00;;;;;;;5.45;3.60;;;;;;;15.11;35.36;101503.19;3588047;39;20317;-62
2022/04/11 08:24:25;;;;;;;6.35;3.88;;;;;;;15.11;35.38;101495.06;3582497;39;20386;-62
2022/04/11 08:26:51;;;;;;;7.38;3.97;;;;;;;15.21;35.59;101505.16;3580499;39;20068;-62
2022/04/11 08:29:20;;;;;;;6.63;3.97;;;;;;;15.40;35.24;101504.72;3586743;39;20289;-62
2022/04/11 08:31:45;;;;;;;7.40;4.10;;;;;;;15.57;35.67;101489.94;3582681;39;20058;-61
2022/04/11 08:34:11;;;;;;;6.57;3.83;;;;;;;15.70;34.12;101495.41;3586987;39;20059;-62
2022/04/11 08:36:37;;;;;;;9.02;3.80;;;;;;;15.88;33.98;101494.03;3572387;39;20067;-63
2022/04/11 08:39:03;;;;;;;6.57;4.30;;;;;;;15.96;33.96;101471.78;3585430;39;20063;-62
2022/04/11 08:41:33;;;;;;;6.75;3.97;;;;;;;16.29;33.64;101494.66;3577929;39;20174;-63
2022/04/11 08:44:04;;;;;;;8.00;3.90;;;;;;;16.39;34.00;101487.53;3585721;40;20060;-62
2022/04/11 08:46:31;;;;;;;9.75;3.80;;;;;;;16.47;33.46;101485.97;3581860;40;20052;-63
2022/04/11 08:49:00;;;;;;;5.75;3.10;;;;;;;16.57;32.81;101493.44;3586046;40;20143;-63
2022/04/11 08:51:26;;;;;;;8.18;3.17;;;;;;;16.67;32.99;101486.31;3578862;39;20055;-63
2022/04/11 08:53:52;;;;;;;5.65;3.20;;;;;;;16.70;31.74;101491.50;3581128;39;20117;-62
2022/04/11 08:56:18;;;;;;;6.07;3.30;;;;;;;16.75;31.68;101475.75;3579663;39;20051;-63
2022/04/11 08:58:44;;;;;;;4.90;3.00;;;;;;;16.87;31.90;101485.66;3580804;39;20126;-63
2022/04/11 09:01:09;;;;;;;8.07;3.15;;;;;;;16.94;31.74;101483.34;3585779;39;20063;-62
2022/04/11 09:03:35;;;;;;;6.15;2.97;;;;;;;17.07;31.17;101502.25;3582809;39;20059;-63
2022/04/11 09:06:09;;;;;;;3.72;2.83;;;;;;;17.11;32.43;101495.59;3586108;40;20059;-63
2022/04/11 09:08:42;;;;;;;8.20;3.25;;;;;;;17.16;31.80;101494.25;3574917;39;20105;-63
2022/04/11 09:11:09;;;;;;;5.35;2.70;;;;;;;17.17;31.41;101495.97;3583711;39;20094;-63
2022/04/11 09:13:52;;;;;;;5.45;2.70;;;;;;;17.18;30.40;101486.81;3578122;39;20067;-63
2022/04/11 09:16:19;;;;;;;6.57;2.75;;;;;;;17.32;32.52;101488.47;3583499;40;20051;-63
2022/04/11 09:18:48;;;;;;;4.88;2.67;;;;;;;17.48;31.08;101484.50;3583432;39;20136;-63
2022/04/11 09:21:13;;;;;;;5.85;2.55;;;;;;;17.56;30.48;101473.88;3587797;39;20052;-62
2022/04/11 09:23:39;;;;;;;4.40;2.50;;;;;;;17.43;30.47;101445.97;3573182;39;20314;-62
2022/04/11 09:26:23;;;;;;;3.60;2.50;;;;;;;17.61;30.31;101467.06;3583563;39;20391;-62
2022/04/11 09:29:03;;;;;;;5.97;2.65;;;;;;;17.66;30.37;101463.09;3579353;39;20063;-61
2022/04/11 09:31:32;;;;;;;3.97;2.47;;;;;;;17.81;31.31;101460.03;3583783;40;20081;-62
2022/04/11 09:34:22;;;;;;;5.80;2.80;;;;;;;18.04;28.64;101446.38;3586153;39;20061;-62
2022/04/11 09:36:53;;;;;;;6.18;2.78;;;;;;;17.97;30.40;101450.59;3583614;40;20066;-61
2022/04/11 09:39:26;;;;;;;5.80;2.63;;;;;;;18.07;29.41;101440.69;3574241;39;20048;-62
2022/04/11 09:41:52;;;;;;;6.15;3.05;;;;;;;18.25;28.76;101450.03;3585085;40;20100;-61
2022/04/11 09:44:30;;;;;;;6.90;2.40;;;;;;;18.05;28.96;101448.13;3568775;39;20043;-62
2022/04/11 09:47:00;;;;;;;6.25;2.75;;;;;;;18.20;29.50;101444.09;3585298;40;20298;-62
2022/04/11 09:49:27;;;;;;;14.18;3.03;;;;;;;18.22;29.42;101433.94;3580903;39;20063;-62
2022/04/11 09:52:15;;;;;;;5.82;2.65;;;;;;;18.18;28.17;101443.38;3582700;39;20086;-61
2022/04/11 09:54:47;;;;;;;6.35;2.70;;;;;;;18.12;26.77;101435.72;3575240;39;20894;-62
2022/04/11 09:57:17;;;;;;;3.38;2.47;;;;;;;17.91;27.17;101430.22;3586148;40;20144;-62
2022/04/11 09:59:44;;;;;;;5.10;2.40;;;;;;;17.75;28.68;101441.47;3576396;39;20063;-61
2022/04/11 10:02:10;;;;;;;6.20;2.78;;;;;;;17.60;28.54;101427.28;3584835;40;20338;-62
2022/04/11 10:04:39;;;;;;;6.03;2.45;;;;;;;17.55;27.95;101424.06;3578729;39;20452;-62
2022/04/11 10:07:09;;;;;;;4.55;2.63;;;;;;;17.60;27.23;101424.56;3584024;40;20406;-62
2022/04/11 10:09:39;;;;;;;5.13;2.72;;;;;;;17.77;28.57;101430.50;3573209;39;20040;-62
2022/04/11 10:12:05;;;;;;;4.57;2.50;;;;;;;17.91;28.21;101408.44;3585229;40;20056;-63
2022/04/11 10:14:32;;;;;;;5.25;2.63;;;;;;;17.93;27.55;101413.78;3575368;39;20375;-64
2022/04/11 10:17:01;;;;;;;5.60;2.60;;;;;;;17.99;28.67;101416.84;3585875;39;20367;-63
2022/04/11 10:19:33;;;;;;;5.90;2.67;;;;;;;18.07;27.53;101419.78;3584115;39;21425;-64
2022/04/11 10:22:11;;;;;;;4.53;2.90;;;;;;;18.02;27.47;101410.28;3584618;39;20067;-63
2022/04/11 10:25:07;;;;;;;6.13;2.53;;;;;;;18.13;28.09;101399.34;3573184;39;20727;-64
2022/04/11 10:27:36;;;;;;;7.32;3.10;;;;;;;17.96;27.80;101373.59;3578980;39;20056;-64
2022/04/11 10:30:12;;;;;;;5.15;2.63;;;;;;;18.51;28.28;101395.22;3577454;39;20056;-63
2022/04/11 10:32:54;;;;;;;11.98;3.03;;;;;;;18.89;28.73;101410.13;3581373;39;20110;-64
2022/04/11 10:35:33;;;;;;;6.40;3.10;;;;;;;18.61;27.46;101396.13;3582959;40;20620;-65
2022/04/11 10:37:59;;;;;;;6.18;3.25;;;;;;;18.59;28.76;101406.31;3583705;40;20121;-63
2022/04/11 10:40:24;;;;;;;10.27;2.88;;;;;;;18.55;27.39;101413.00;3574344;39;20067;-64
2022/04/11 10:43:08;;;;;;;8.77;3.13;;;;;;;18.48;28.56;101406.38;3582304;40;20159;-64
2022/04/11 10:45:58;;;;;;;6.95;3.20;;;;;;;18.25;28.63;101403.75;3575723;39;20044;-64
2022/04/11 10:48:57;;;;;;;6.70;3.08;;;;;;;18.30;28.76;101387.91;3581947;39;20051;-65
2022/04/11 10:51:22;;;;;;;3.88;2.80;;;;;;;18.36;28.95;101380.19;3580199;39;20064;-65
2022/04/11 10:54:18;;;;;;;5.93;2.90;;;;;;;18.38;28.29;101383.66;3583004;40;20133;-64
2022/04/11 10:56:55;;;;;;;4.30;3.03;;;;;;;18.51;29.91;101368.84;3573591;39;20132;-65
2022/04/11 10:59:48;;;;;;;6.15;2.95;;;;;;;18.94;29.55;101370.56;3581672;40;20462;-65
2022/04/11 11:02:15;;;;;;;5.53;2.83;;;;;;;19.28;28.77;101385.75;3576863;39;20087;-63
2022/04/11 11:04:42;;;;;;;4.57;2.88;;;;;;;19.29;27.98;101362.97;3581398;40;20125;-65
2022/04/11 11:07:28;;;;;;;8.02;3.40;;;;;;;19.08;26.84;101352.13;3585737;39;20051;-63
2022/04/11 11:10:00;;;;;;;6.57;2.90;;;;;;;19.29;27.29;101349.34;3583281;40;20716;-63
2022/04/11 11:12:27;;;;;;;7.50;2.90;;;;;;;19.56;28.70;101338.63;3575837;39;20117;-63
2022/04/11 11:14:53;;;;;;;4.88;3.03;;;;;;;19.95;28.02;101349.66;3583674;40;20669;-64
2022/04/11 11:17:18;;;;;;;4.93;2.67;;;;;;;20.18;27.04;101345.59;3577270;39;20050;-64
2022/04/11 11:20:08;;;;;;;3.90;2.60;;;;;;;19.87;23.95;101335.84;3585094;39;20677;-63
2022/04/11 11:23:14;;;;;;;5.00;3.08;;;;;;;19.85;24.98;101332.38;3579809;40;20060;-62